Newington, Connecticut
Current Conditions -  °F | °C
As of 6:53 PM on Thursday 27 Nov 2014 (Local Time) from KHFD Reporting Station
Light Snow Light Snow  
Wind Chill: 29°   Ceiling: 2500
Heat Index: 34°   Visibility: 9mi
Dew Point: 28°   Wind: 6mph
Humidity: 79%   Direction: NA
Pressure: 30.01"   Gusts: NA
Location:  41.7°N, 72.73°W
Report Text: KHFD 272353Z VRB05KT 9SM -SN FEW018 OVC025 01/M02 A3001 RMK AO2 SLP163 P0000 60000 T00111022 10022 20011 52009
Loading
Personal Weather Stations






























Interactive Weather Map New forecast layout! Learn more

10-Day Weather Forecast

Advertisements
Track Severe Weather on mobile